sensor_id;sensor_type;location;lat;lon;timestamp;pressure;altitude;pressure_sealevel;temperature;humidity
21401;BME280;18038;50.166;18.908;2023-06-10T00:00:46;97705.28;;;14.44;100.00
21401;BME280;18038;50.166;18.908;2023-06-10T00:03:57;97695.59;;;14.43;100.00
21401;BME280;18038;50.166;18.908;2023-06-10T00:07:03;97699.16;;;14.37;100.00
21401;BME280;18038;50.166;18.908;2023-06-10T00:10:12;97693.66;;;14.32;100.00
21401;BME280;18038;50.166;18.908;2023-06-10T00:13:18;97698.00;;;14.33;100.00
21401;BME280;18038;50.166;18.908;2023-06-10T00:16:25;97701.56;;;14.27;100.00
21401;BME280;18038;50.166;18.908;2023-06-10T00:19:34;97701.81;;;14.26;100.00
21401;BME280;18038;50.166;18.908;2023-06-10T00:22:45;97702.97;;;14.30;100.00
21401;BME280;18038;50.166;18.908;2023-06-10T00:25:51;97701.84;;;14.37;100.00
21401;BME280;18038;50.166;18.908;2023-06-10T00:28:58;97709.25;;;14.42;100.00
21401;BME280;18038;50.166;18.908;2023-06-10T00:32:05;97704.94;;;14.41;100.00
21401;BME280;18038;50.166;18.908;2023-06-10T00:35:15;97704.78;;;14.36;100.00
21401;BME280;18038;50.166;18.908;2023-06-10T00:38:22;97709.56;;;14.34;100.00
21401;BME280;18038;50.166;18.908;2023-06-10T00:41:29;97714.31;;;14.32;100.00
21401;BME280;18038;50.166;18.908;2023-06-10T00:44:36;97717.69;;;14.27;100.00
21401;BME280;18038;50.166;18.908;2023-06-10T00:47:44;97713.22;;;14.21;100.00
21401;BME280;18038;50.166;18.908;2023-06-10T00:50:53;97718.00;;;14.19;100.00
21401;BME280;18038;50.166;18.908;2023-06-10T00:54:00;97724.63;;;14.16;100.00
21401;BME280;18038;50.166;18.908;2023-06-10T00:57:06;97719.06;;;14.18;100.00
21401;BME280;18038;50.166;18.908;2023-06-10T01:00:14;97720.53;;;14.14;100.00
21401;BME280;18038;50.166;18.908;2023-06-10T01:03:21;97721.00;;;14.11;100.00
21401;BME280;18038;50.166;18.908;2023-06-10T01:06:41;97727.41;;;14.10;100.00
21401;BME280;18038;50.166;18.908;2023-06-10T01:10:02;97728.44;;;14.09;100.00
21401;BME280;18038;50.166;18.908;2023-06-10T01:13:12;97721.00;;;14.11;100.00
21401;BME280;18038;50.166;18.908;2023-06-10T01:16:21;97723.47;;;14.12;100.00
21401;BME280;18038;50.166;18.908;2023-06-10T01:19:29;97722.84;;;14.10;100.00
21401;BME280;18038;50.166;18.908;2023-06-10T01:22:39;97722.72;;;14.05;100.00
21401;BME280;18038;50.166;18.908;2023-06-10T01:25:49;97720.03;;;14.05;100.00
21401;BME280;18038;50.166;18.908;2023-06-10T01:29:05;97731.59;;;14.06;100.00
21401;BME280;18038;50.166;18.908;2023-06-10T01:32:23;97726.06;;;14.00;100.00
21401;BME280;18038;50.166;18.908;2023-06-10T01:35:37;97724.34;;;14.06;100.00
21401;BME280;18038;50.166;18.908;2023-06-10T01:38:50;97727.03;;;14.06;100.00
21401;BME280;18038;50.166;18.908;2023-06-10T01:41:58;97720.84;;;14.06;100.00
21401;BME280;18038;50.166;18.908;2023-06-10T01:45:07;97726.22;;;14.06;100.00
21401;BME280;18038;50.166;18.908;2023-06-10T01:48:13;97721.00;;;14.11;100.00
21401;BME280;18038;50.166;18.908;2023-06-10T01:51:20;97721.75;;;14.18;100.00
21401;BME280;18038;50.166;18.908;2023-06-10T01:54:29;97726.91;;;14.19;100.00
21401;BME280;18038;50.166;18.908;2023-06-10T01:57:38;97722.34;;;14.20;100.00
21401;BME280;18038;50.166;18.908;2023-06-10T02:00:44;97733.09;;;14.20;100.00
21401;BME280;18038;50.166;18.908;2023-06-10T02:03:51;97734.97;;;14.19;100.00
21401;BME280;18038;50.166;18.908;2023-06-10T02:06:57;97735.84;;;14.13;100.00
21401;BME280;18038;50.166;18.908;2023-06-10T02:10:10;97731.28;;;14.14;100.00
21401;BME280;18038;50.166;18.908;2023-06-10T02:13:16;97731.13;;;14.09;100.00
21401;BME280;18038;50.166;18.908;2023-06-10T02:16:27;97740.84;;;14.10;100.00
21401;BME280;18038;50.166;18.908;2023-06-10T02:19:34;97738.47;;;14.01;100.00
21401;BME280;18038;50.166;18.908;2023-06-10T02:22:41;97746.88;;;14.05;100.00
21401;BME280;18038;50.166;18.908;2023-06-10T02:25:51;97750.38;;;14.06;100.00
21401;BME280;18038;50.166;18.908;2023-06-10T02:28:57;97750.16;;;14.07;100.00
21401;BME280;18038;50.166;18.908;2023-06-10T02:32:07;97752.41;;;14.10;100.00
21401;BME280;18038;50.166;18.908;2023-06-10T02:35:17;97751.44;;;14.05;100.00
21401;BME280;18038;50.166;18.908;2023-06-10T02:38:27;97745.31;;;13.97;100.00
21401;BME280;18038;50.166;18.908;2023-06-10T02:41:38;97753.16;;;13.99;100.00
21401;BME280;18038;50.166;18.908;2023-06-10T02:44:44;97742.63;;;13.97;100.00
21401;BME280;18038;50.166;18.908;2023-06-10T02:47:58;97742.25;;;13.94;100.00
21401;BME280;18038;50.166;18.908;2023-06-10T02:51:06;97748.00;;;13.97;100.00
21401;BME280;18038;50.166;18.908;2023-06-10T02:54:17;97751.72;;;13.96;100.00
21401;BME280;18038;50.166;18.908;2023-06-10T02:57:26;97751.94;;;13.95;100.00
21401;BME280;18038;50.166;18.908;2023-06-10T03:00:33;97752.59;;;13.90;100.00
21401;BME280;18038;50.166;18.908;2023-06-10T03:03:40;97746.41;;;13.90;100.00
21401;BME280;18038;50.166;18.908;2023-06-10T03:06:50;97747.69;;;13.87;100.00
21401;BME280;18038;50.166;18.908;2023-06-10T03:10:03;97741.28;;;13.88;100.00
21401;BME280;18038;50.166;18.908;2023-06-10T03:13:16;97753.66;;;13.89;100.00
21401;BME280;18038;50.166;18.908;2023-06-10T03:16:22;97754.63;;;14.13;100.00
21401;BME280;18038;50.166;18.908;2023-06-10T03:19:31;97752.25;;;14.05;100.00
21401;BME280;18038;50.166;18.908;2023-06-10T03:22:37;97757.84;;;14.04;100.00
21401;BME280;18038;50.166;18.908;2023-06-10T03:25:46;97759.41;;;14.11;100.00
21401;BME280;18038;50.166;18.908;2023-06-10T03:28:57;97765.06;;;14.03;100.00
21401;BME280;18038;50.166;18.908;2023-06-10T03:32:05;97756.81;;;14.05;100.00
21401;BME280;18038;50.166;18.908;2023-06-10T03:35:14;97754.25;;;14.10;100.00
21401;BME280;18038;50.166;18.908;2023-06-10T03:38:21;97757.97;;;14.09;100.00
21401;BME280;18038;50.166;18.908;2023-06-10T03:41:28;97766.72;;;14.04;100.00
21401;BME280;18038;50.166;18.908;2023-06-10T03:44:39;97768.72;;;14.09;100.00
21401;BME280;18038;50.166;18.908;2023-06-10T03:47:46;97768.72;;;14.09;100.00
21401;BME280;18038;50.166;18.908;2023-06-10T03:50:57;97770.69;;;14.20;100.00
21401;BME280;18038;50.166;18.908;2023-06-10T03:54:04;97777.94;;;14.19;100.00
21401;BME280;18038;50.166;18.908;2023-06-10T03:57:11;97778.94;;;14.18;100.00
21401;BME280;18038;50.166;18.908;2023-06-10T04:00:20;97778.28;;;14.23;100.00
21401;BME280;18038;50.166;18.908;2023-06-10T04:03:27;97779.72;;;14.26;100.00
21401;BME280;18038;50.166;18.908;2023-06-10T04:06:34;97771.19;;;14.29;100.00
21401;BME280;18038;50.166;18.908;2023-06-10T04:09:41;97771.19;;;14.29;100.00
21401;BME280;18038;50.166;18.908;2023-06-10T04:12:49;97772.09;;;14.41;100.00
21401;BME280;18038;50.166;18.908;2023-06-10T04:16:00;97774.38;;;14.56;100.00
21401;BME280;18038;50.166;18.908;2023-06-10T04:19:06;97780.47;;;14.63;100.00
21401;BME280;18038;50.166;18.908;2023-06-10T04:22:14;97780.38;;;14.69;100.00
21401;BME280;18038;50.166;18.908;2023-06-10T04:25:20;97782.97;;;14.64;99.72
21401;BME280;18038;50.166;18.908;2023-06-10T04:28:28;97780.69;;;14.61;99.91
21401;BME280;18038;50.166;18.908;2023-06-10T04:31:36;97791.22;;;14.63;100.00
21401;BME280;18038;50.166;18.908;2023-06-10T04:34:45;97798.09;;;14.59;100.00
21401;BME280;18038;50.166;18.908;2023-06-10T04:37:53;97792.28;;;14.62;100.00
21401;BME280;18038;50.166;18.908;2023-06-10T04:41:00;97783.38;;;14.61;100.00
21401;BME280;18038;50.166;18.908;2023-06-10T04:44:09;97782.63;;;14.73;100.00
21401;BME280;18038;50.166;18.908;2023-06-10T04:47:20;97785.22;;;14.79;100.00
21401;BME280;18038;50.166;18.908;2023-06-10T04:50:26;97780.81;;;14.85;99.93
21401;BME280;18038;50.166;18.908;2023-06-10T04:53:35;97788.06;;;14.84;99.87
21401;BME280;18038;50.166;18.908;2023-06-10T04:56:41;97785.06;;;14.93;99.91
21401;BME280;18038;50.166;18.908;2023-06-10T04:59:48;97796.88;;;14.92;99.27
21401;BME280;18038;50.166;18.908;2023-06-10T05:02:57;97783.56;;;14.97;100.00
21401;BME280;18038;50.166;18.908;2023-06-10T05:06:04;97795.75;;;14.99;99.27
21401;BME280;18038;50.166;18.908;2023-06-10T05:09:12;97793.53;;;14.96;98.58
21401;BME280;18038;50.166;18.908;2023-06-10T05:12:19;97796.91;;;15.03;99.22
21401;BME280;18038;50.166;18.908;2023-06-10T05:15:25;97796.09;;;15.03;98.61
21401;BME280;18038;50.166;18.908;2023-06-10T05:18:38;97799.41;;;14.86;97.86
21401;BME280;18038;50.166;18.908;2023-06-10T05:21:44;97800.22;;;14.87;98.90
21401;BME280;18038;50.166;18.908;2023-06-10T05:24:51;97807.19;;;14.76;98.16
21401;BME280;18038;50.166;18.908;2023-06-10T05:27:57;97802.16;;;14.80;99.49
21401;BME280;18038;50.166;18.908;2023-06-10T05:31:04;97802.25;;;14.92;99.50
21401;BME280;18038;50.166;18.908;2023-06-10T05:34:14;97798.59;;;14.86;98.44
21401;BME280;18038;50.166;18.908;2023-06-10T05:37:21;97805.25;;;14.83;97.85
21401;BME280;18038;50.166;18.908;2023-06-10T05:40:28;97804.03;;;14.98;99.33
21401;BME280;18038;50.166;18.908;2023-06-10T05:43:35;97806.38;;;15.06;98.35
21401;BME280;18038;50.166;18.908;2023-06-10T05:46:41;97804.38;;;15.01;97.85
21401;BME280;18038;50.166;18.908;2023-06-10T05:49:50;97808.63;;;15.09;98.47
21401;BME280;18038;50.166;18.908;2023-06-10T05:52:56;97810.81;;;15.00;97.46
21401;BME280;18038;50.166;18.908;2023-06-10T05:56:11;97821.91;;;14.92;97.48
21401;BME280;18038;50.166;18.908;2023-06-10T05:59:17;97812.03;;;14.86;97.03
21401;BME280;18038;50.166;18.908;2023-06-10T06:02:26;97814.44;;;14.94;97.72
21401;BME280;18038;50.166;18.908;2023-06-10T06:05:35;97828.09;;;14.93;97.95
21401;BME280;18038;50.166;18.908;2023-06-10T06:08:42;97827.63;;;14.96;98.20
21401;BME280;18038;50.166;18.908;2023-06-10T06:11:48;97823.16;;;14.89;97.92
21401;BME280;18038;50.166;18.908;2023-06-10T06:14:55;97835.50;;;15.09;98.41
21401;BME280;18038;50.166;18.908;2023-06-10T06:18:01;97831.53;;;14.81;95.20
21401;BME280;18038;50.166;18.908;2023-06-10T06:21:11;97832.56;;;14.99;97.95
21401;BME280;18038;50.166;18.908;2023-06-10T06:24:17;97828.69;;;14.76;95.15
21401;BME280;18038;50.166;18.908;2023-06-10T06:27:24;97840.34;;;14.70;97.10
21401;BME280;18038;50.166;18.908;2023-06-10T06:30:32;97853.50;;;14.60;96.97
21401;BME280;18038;50.166;18.908;2023-06-10T06:33:39;97852.59;;;14.66;97.83
21401;BME280;18038;50.166;18.908;2023-06-10T06:36:48;97859.75;;;14.72;98.54
21401;BME280;18038;50.166;18.908;2023-06-10T06:39:57;97862.22;;;14.37;97.52
21401;BME280;18038;50.166;18.908;2023-06-10T06:43:06;97870.81;;;14.45;100.00
21401;BME280;18038;50.166;18.908;2023-06-10T06:46:12;97865.13;;;14.17;98.23
21401;BME280;18038;50.166;18.908;2023-06-10T06:49:20;97874.94;;;14.05;99.58
21401;BME280;18038;50.166;18.908;2023-06-10T06:52:29;97878.84;;;13.77;98.72
21401;BME280;18038;50.166;18.908;2023-06-10T06:55:35;97896.53;;;13.91;100.00
21401;BME280;18038;50.166;18.908;2023-06-10T06:58:43;97882.03;;;13.99;100.00
21401;BME280;18038;50.166;18.908;2023-06-10T07:01:50;97884.91;;;13.97;100.00
21401;BME280;18038;50.166;18.908;2023-06-10T07:04:58;97882.69;;;13.94;100.00
21401;BME280;18038;50.166;18.908;2023-06-10T07:08:07;97892.50;;;13.75;99.95
21401;BME280;18038;50.166;18.908;2023-06-10T07:11:15;97884.09;;;13.72;100.00
21401;BME280;18038;50.166;18.908;2023-06-10T07:14:31;97898.25;;;13.54;100.00
21401;BME280;18038;50.166;18.908;2023-06-10T07:17:38;97889.38;;;13.53;100.00
21401;BME280;18038;50.166;18.908;2023-06-10T07:20:45;97885.63;;;13.54;100.00
21401;BME280;18038;50.166;18.908;2023-06-10T07:23:58;97881.44;;;13.65;100.00
21401;BME280;18038;50.166;18.908;2023-06-10T07:27:05;97887.34;;;13.74;100.00
21401;BME280;18038;50.166;18.908;2023-06-10T07:30:13;97889.22;;;13.73;100.00
21401;BME280;18038;50.166;18.908;2023-06-10T07:33:19;97890.13;;;13.92;100.00
21401;BME280;18038;50.166;18.908;2023-06-10T07:36:26;97892.19;;;13.90;100.00
21401;BME280;18038;50.166;18.908;2023-06-10T07:39:35;97894.31;;;13.88;100.00
21401;BME280;18038;50.166;18.908;2023-06-10T07:42:42;97895.00;;;14.02;100.00
21401;BME280;18038;50.166;18.908;2023-06-10T07:45:49;97897.25;;;14.05;99.11
21401;BME280;18038;50.166;18.908;2023-06-10T07:48:58;97905.53;;;14.22;98.46
21401;BME280;18038;50.166;18.908;2023-06-10T07:52:09;97908.22;;;14.22;96.70
21401;BME280;18038;50.166;18.908;2023-06-10T07:55:18;97903.59;;;14.11;96.16
21401;BME280;18038;50.166;18.908;2023-06-10T07:58:25;97901.88;;;14.41;95.93
21401;BME280;18038;50.166;18.908;2023-06-10T08:01:32;97908.25;;;14.40;95.29
21401;BME280;18038;50.166;18.908;2023-06-10T08:04:38;97903.03;;;14.45;94.32
21401;BME280;18038;50.166;18.908;2023-06-10T08:07:45;97904.16;;;14.56;93.72
21401;BME280;18038;50.166;18.908;2023-06-10T08:10:54;97913.09;;;14.94;92.58
21401;BME280;18038;50.166;18.908;2023-06-10T08:14:01;97914.34;;;15.09;91.64
21401;BME280;18038;50.166;18.908;2023-06-10T08:17:07;97914.97;;;15.53;89.83
21401;BME280;18038;50.166;18.908;2023-06-10T08:20:14;97917.59;;;16.02;87.70
21401;BME280;18038;50.166;18.908;2023-06-10T08:23:20;97918.88;;;16.35;86.07
21401;BME280;18038;50.166;18.908;2023-06-10T08:26:30;97913.50;;;16.35;83.51
21401;BME280;18038;50.166;18.908;2023-06-10T08:29:37;97912.22;;;16.37;83.49
21401;BME280;18038;50.166;18.908;2023-06-10T08:32:43;97916.53;;;16.50;82.93
21401;BME280;18038;50.166;18.908;2023-06-10T08:35:50;97918.63;;;16.95;81.98
21401;BME280;18038;50.166;18.908;2023-06-10T08:38:56;97925.75;;;17.87;80.60
21401;BME280;18038;50.166;18.908;2023-06-10T08:42:13;97931.91;;;18.16;76.15
21401;BME280;18038;50.166;18.908;2023-06-10T08:45:30;97932.91;;;18.83;73.16
21401;BME280;18038;50.166;18.908;2023-06-10T08:48:42;97931.00;;;18.61;73.52
21401;BME280;18038;50.166;18.908;2023-06-10T08:51:50;97932.13;;;18.88;72.26
21401;BME280;18038;50.166;18.908;2023-06-10T08:55:09;97925.03;;;19.25;71.84
21401;BME280;18038;50.166;18.908;2023-06-10T08:58:20;97912.69;;;19.62;69.88
21401;BME280;18038;50.166;18.908;2023-06-10T09:01:28;97913.53;;;19.95;68.88
21401;BME280;18038;50.166;18.908;2023-06-10T09:04:36;97920.19;;;20.46;68.39
21401;BME280;18038;50.166;18.908;2023-06-10T09:07:45;97917.31;;;20.63;67.81
21401;BME280;18038;50.166;18.908;2023-06-10T09:10:54;97915.94;;;20.61;66.67
21401;BME280;18038;50.166;18.908;2023-06-10T09:14:03;97917.72;;;20.82;67.68
21401;BME280;18038;50.166;18.908;2023-06-10T09:17:10;97924.78;;;20.88;65.34
21401;BME280;18038;50.166;18.908;2023-06-10T09:20:16;97930.56;;;20.59;65.49
21401;BME280;18038;50.166;18.908;2023-06-10T09:23:24;97930.22;;;19.81;68.86
21401;BME280;18038;50.166;18.908;2023-06-10T09:26:31;97935.09;;;19.79;69.21
21401;BME280;18038;50.166;18.908;2023-06-10T09:29:52;97928.81;;;19.74;69.06
21401;BME280;18038;50.166;18.908;2023-06-10T09:33:02;97921.75;;;20.37;67.28
21401;BME280;18038;50.166;18.908;2023-06-10T09:36:21;97928.63;;;21.86;64.04
21401;BME280;18038;50.166;18.908;2023-06-10T09:39:37;97926.47;;;22.03;62.49
21401;BME280;18038;50.166;18.908;2023-06-10T09:42:44;97929.69;;;21.64;61.32
21401;BME280;18038;50.166;18.908;2023-06-10T09:45:59;97928.78;;;21.43;61.87
21401;BME280;18038;50.166;18.908;2023-06-10T09:49:06;97921.63;;;21.07;62.73
21401;BME280;18038;50.166;18.908;2023-06-10T09:52:11;97930.28;;;20.98;61.67
21401;BME280;18038;50.166;18.908;2023-06-10T09:55:18;97915.13;;;21.18;61.77
21401;BME280;18038;50.166;18.908;2023-06-10T09:58:34;97930.16;;;21.41;61.55
21401;BME280;18038;50.166;18.908;2023-06-10T10:01:55;97928.31;;;20.89;61.76
21401;BME280;18038;50.166;18.908;2023-06-10T10:05:03;97922.66;;;20.48;63.24
21401;BME280;18038;50.166;18.908;2023-06-10T10:08:11;97924.91;;;20.24;64.90
21401;BME280;18038;50.166;18.908;2023-06-10T10:11:19;97933.59;;;20.21;64.88
21401;BME280;18038;50.166;18.908;2023-06-10T10:14:28;97931.03;;;19.82;66.81
21401;BME280;18038;50.166;18.908;2023-06-10T10:17:47;97926.34;;;19.99;66.89
21401;BME280;18038;50.166;18.908;2023-06-10T10:21:03;97927.66;;;19.97;64.63
21401;BME280;18038;50.166;18.908;2023-06-10T10:24:18;97935.16;;;20.17;65.00
21401;BME280;18038;50.166;18.908;2023-06-10T10:27:33;97919.63;;;19.80;65.94
21401;BME280;18038;50.166;18.908;2023-06-10T10:30:49;97916.72;;;19.54;67.06
21401;BME280;18038;50.166;18.908;2023-06-10T10:34:06;97910.81;;;19.35;70.06
21401;BME280;18038;50.166;18.908;2023-06-10T10:37:14;97909.97;;;19.35;69.35
21401;BME280;18038;50.166;18.908;2023-06-10T10:40:23;97914.72;;;19.00;66.60
21401;BME280;18038;50.166;18.908;2023-06-10T10:43:33;97910.19;;;18.84;67.45
21401;BME280;18038;50.166;18.908;2023-06-10T10:46:44;97917.41;;;18.78;67.00
21401;BME280;18038;50.166;18.908;2023-06-10T10:49:56;97909.91;;;18.64;66.96
21401;BME280;18038;50.166;18.908;2023-06-10T10:53:08;97910.03;;;18.74;67.08
21401;BME280;18038;50.166;18.908;2023-06-10T10:56:16;97908.47;;;19.00;65.81
21401;BME280;18038;50.166;18.908;2023-06-10T10:59:24;97899.69;;;19.10;63.03
21401;BME280;18038;50.166;18.908;2023-06-10T11:02:36;97900.03;;;19.18;61.81
21401;BME280;18038;50.166;18.908;2023-06-10T11:05:49;97897.97;;;19.03;61.29
21401;BME280;18038;50.166;18.908;2023-06-10T11:08:55;97884.75;;;19.07;59.32
21401;BME280;18038;50.166;18.908;2023-06-10T11:12:08;97910.50;;;19.10;60.09
21401;BME280;18038;50.166;18.908;2023-06-10T11:15:18;97903.03;;;19.22;58.87
21401;BME280;18038;50.166;18.908;2023-06-10T11:18:28;97920.91;;;19.72;58.87
21401;BME280;18038;50.166;18.908;2023-06-10T11:22:03;97918.06;;;19.84;58.36
21401;BME280;18038;50.166;18.908;2023-06-10T11:25:14;97914.53;;;20.10;58.76
21401;BME280;18038;50.166;18.908;2023-06-10T11:28:20;97896.59;;;20.09;58.43
21401;BME280;18038;50.166;18.908;2023-06-10T11:31:41;97910.75;;;20.59;57.36
21401;BME280;18038;50.166;18.908;2023-06-10T11:34:52;97905.34;;;20.17;56.73
21401;BME280;18038;50.166;18.908;2023-06-10T11:38:02;97913.94;;;20.46;56.33
21401;BME280;18038;50.166;18.908;2023-06-10T11:41:08;97911.53;;;20.54;56.12
21401;BME280;18038;50.166;18.908;2023-06-10T11:44:16;97921.66;;;21.17;55.77
21401;BME280;18038;50.166;18.908;2023-06-10T11:47:22;97909.16;;;21.11;55.69
21401;BME280;18038;50.166;18.908;2023-06-10T11:50:31;97907.00;;;21.23;54.84
21401;BME280;18038;50.166;18.908;2023-06-10T11:53:40;97908.84;;;21.07;54.70
21401;BME280;18038;50.166;18.908;2023-06-10T11:56:57;97907.59;;;21.40;53.27
21401;BME280;18038;50.166;18.908;2023-06-10T12:00:07;97903.78;;;21.41;53.61
21401;BME280;18038;50.166;18.908;2023-06-10T12:03:17;97891.94;;;21.78;53.29
21401;BME280;18038;50.166;18.908;2023-06-10T12:06:23;97885.97;;;22.32;52.19
21401;BME280;18038;50.166;18.908;2023-06-10T12:09:33;97888.88;;;21.49;53.08
21401;BME280;18038;50.166;18.908;2023-06-10T12:12:39;97891.03;;;21.47;52.70
21401;BME280;18038;50.166;18.908;2023-06-10T12:15:46;97894.78;;;21.26;53.10
21401;BME280;18038;50.166;18.908;2023-06-10T12:19:01;97909.88;;;21.79;52.27
21401;BME280;18038;50.166;18.908;2023-06-10T12:22:10;97900.09;;;21.94;50.32
21401;BME280;18038;50.166;18.908;2023-06-10T12:25:24;97889.75;;;21.80;51.89
21401;BME280;18038;50.166;18.908;2023-06-10T12:28:32;97901.97;;;22.24;51.70
21401;BME280;18038;50.166;18.908;2023-06-10T12:31:52;97896.56;;;22.29;50.40
21401;BME280;18038;50.166;18.908;2023-06-10T12:35:09;97889.69;;;22.67;50.07
21401;BME280;18038;50.166;18.908;2023-06-10T12:38:21;97887.16;;;22.86;48.63
21401;BME280;18038;50.166;18.908;2023-06-10T12:41:36;97897.41;;;22.29;49.76
21401;BME280;18038;50.166;18.908;2023-06-10T12:44:43;97910.41;;;21.71;50.30
21401;BME280;18038;50.166;18.908;2023-06-10T12:47:50;97891.09;;;21.73;51.31
21401;BME280;18038;50.166;18.908;2023-06-10T12:50:57;97887.84;;;21.81;50.49
21401;BME280;18038;50.166;18.908;2023-06-10T12:54:07;97895.19;;;21.70;49.69
21401;BME280;18038;50.166;18.908;2023-06-10T12:57:24;97897.28;;;21.37;50.84
21401;BME280;18038;50.166;18.908;2023-06-10T13:00:31;97898.88;;;21.33;51.81
21401;BME280;18038;50.166;18.908;2023-06-10T13:03:38;97901.03;;;21.16;51.41
21401;BME280;18038;50.166;18.908;2023-06-10T13:06:45;97890.22;;;21.46;51.41
21401;BME280;18038;50.166;18.908;2023-06-10T13:09:51;97882.88;;;21.37;51.25
21401;BME280;18038;50.166;18.908;2023-06-10T13:13:01;97879.41;;;21.62;51.28
21401;BME280;18038;50.166;18.908;2023-06-10T13:16:15;97884.78;;;21.46;51.01
21401;BME280;18038;50.166;18.908;2023-06-10T13:19:31;97880.25;;;21.73;50.92
21401;BME280;18038;50.166;18.908;2023-06-10T13:22:37;97870.44;;;22.13;51.04
21401;BME280;18038;50.166;18.908;2023-06-10T13:25:44;97872.34;;;21.81;50.08
21401;BME280;18038;50.166;18.908;2023-06-10T13:28:53;97866.94;;;21.61;49.83
21401;BME280;18038;50.166;18.908;2023-06-10T13:32:00;97864.75;;;21.88;50.60
21401;BME280;18038;50.166;18.908;2023-06-10T13:35:07;97876.16;;;21.60;49.52
21401;BME280;18038;50.166;18.908;2023-06-10T13:38:14;97864.22;;;21.61;48.66
21401;BME280;18038;50.166;18.908;2023-06-10T13:41:20;97856.03;;;21.92;49.22
21401;BME280;18038;50.166;18.908;2023-06-10T13:44:30;97871.19;;;21.26;50.63
21401;BME280;18038;50.166;18.908;2023-06-10T13:47:38;97871.72;;;21.28;50.92
21401;BME280;18038;50.166;18.908;2023-06-10T13:50:46;97867.41;;;21.37;51.14
21401;BME280;18038;50.166;18.908;2023-06-10T13:53:52;97862.03;;;21.68;50.09
21401;BME280;18038;50.166;18.908;2023-06-10T13:56:59;97866.09;;;21.91;50.15
21401;BME280;18038;50.166;18.908;2023-06-10T14:00:09;97860.66;;;21.86;49.99
21401;BME280;18038;50.166;18.908;2023-06-10T14:03:17;97862.03;;;21.73;50.04
21401;BME280;18038;50.166;18.908;2023-06-10T14:06:23;97857.13;;;21.55;50.17
21401;BME280;18038;50.166;18.908;2023-06-10T14:09:30;97871.28;;;21.72;50.69
21401;BME280;18038;50.166;18.908;2023-06-10T14:12:36;97860.84;;;21.28;51.71
21401;BME280;18038;50.166;18.908;2023-06-10T14:15:46;97851.63;;;21.24;52.18
21401;BME280;18038;50.166;18.908;2023-06-10T14:18:52;97851.09;;;21.32;51.50
21401;BME280;18038;50.166;18.908;2023-06-10T14:21:59;97849.41;;;21.06;52.28
21401;BME280;18038;50.166;18.908;2023-06-10T14:25:09;97848.25;;;20.86;52.79
21401;BME280;18038;50.166;18.908;2023-06-10T14:28:16;97849.19;;;20.59;52.52
21401;BME280;18038;50.166;18.908;2023-06-10T14:31:26;97846.97;;;20.51;53.74
21401;BME280;18038;50.166;18.908;2023-06-10T14:34:34;97839.72;;;20.67;53.61
21401;BME280;18038;50.166;18.908;2023-06-10T14:37:41;97840.09;;;20.86;53.29
21401;BME280;18038;50.166;18.908;2023-06-10T14:40:48;97842.84;;;20.33;54.27
21401;BME280;18038;50.166;18.908;2023-06-10T14:43:55;97856.25;;;19.81;52.36
21401;BME280;18038;50.166;18.908;2023-06-10T14:47:05;97865.00;;;18.84;55.34
21401;BME280;18038;50.166;18.908;2023-06-10T14:50:11;97897.00;;;16.31;73.99
21401;BME280;18038;50.166;18.908;2023-06-10T14:53:18;97899.75;;;15.17;75.10
21401;BME280;18038;50.166;18.908;2023-06-10T14:56:24;97918.22;;;13.90;88.38
21401;BME280;18038;50.166;18.908;2023-06-10T14:59:33;97899.84;;;13.30;100.00
21401;BME280;18038;50.166;18.908;2023-06-10T15:02:42;97900.44;;;12.87;100.00
21401;BME280;18038;50.166;18.908;2023-06-10T15:05:50;97896.13;;;12.92;100.00
21401;BME280;18038;50.166;18.908;2023-06-10T15:08:56;97887.88;;;12.87;100.00
21401;BME280;18038;50.166;18.908;2023-06-10T15:12:03;97878.53;;;13.03;100.00
21401;BME280;18038;50.166;18.908;2023-06-10T15:15:09;97898.63;;;12.81;100.00
21401;BME280;18038;50.166;18.908;2023-06-10T15:18:19;97899.22;;;12.83;100.00
21401;BME280;18038;50.166;18.908;2023-06-10T15:21:25;97894.25;;;12.86;100.00
21401;BME280;18038;50.166;18.908;2023-06-10T15:24:33;97892.50;;;13.12;100.00
21401;BME280;18038;50.166;18.908;2023-06-10T15:27:39;97895.31;;;13.24;100.00
21401;BME280;18038;50.166;18.908;2023-06-10T15:30:45;97889.41;;;13.47;100.00
21401;BME280;18038;50.166;18.908;2023-06-10T15:33:59;97884.56;;;13.62;100.00
21401;BME280;18038;50.166;18.908;2023-06-10T15:37:06;97886.66;;;13.85;100.00
21401;BME280;18038;50.166;18.908;2023-06-10T15:40:12;97895.22;;;14.00;100.00
21401;BME280;18038;50.166;18.908;2023-06-10T15:43:19;97894.38;;;14.25;100.00
21401;BME280;18038;50.166;18.908;2023-06-10T15:46:25;97900.81;;;14.42;100.00
21401;BME280;18038;50.166;18.908;2023-06-10T15:49:35;97900.81;;;14.61;100.00
21401;BME280;18038;50.166;18.908;2023-06-10T15:52:41;97906.56;;;14.83;100.00
21401;BME280;18038;50.166;18.908;2023-06-10T15:55:48;97898.75;;;15.00;100.00
21401;BME280;18038;50.166;18.908;2023-06-10T15:58:54;97899.47;;;15.25;100.00
21401;BME280;18038;50.166;18.908;2023-06-10T16:02:01;97903.72;;;15.45;100.00
21401;BME280;18038;50.166;18.908;2023-06-10T16:05:11;97903.81;;;15.68;100.00
21401;BME280;18038;50.166;18.908;2023-06-10T16:08:18;97894.13;;;15.91;98.75
21401;BME280;18038;50.166;18.908;2023-06-10T16:11:24;97905.88;;;16.08;96.74
21401;BME280;18038;50.166;18.908;2023-06-10T16:14:30;97894.75;;;16.16;93.92
21401;BME280;18038;50.166;18.908;2023-06-10T16:17:41;97903.53;;;16.35;93.19
21401;BME280;18038;50.166;18.908;2023-06-10T16:20:53;97896.25;;;16.36;89.68